Luystown, Missouri
Current Conditions -  °F | °C
As of 6:53 AM on Friday 19 Dec 2014 (Local Time) from KJEF Reporting Station
Haze Haze  
Wind Chill: 33°   Ceiling: 500
Heat Index: 33°   Visibility: 4mi
Dew Point: 31°   Wind: 3mph
Humidity: 92%   Direction: 110°ESE
Pressure: 30.28"   Gusts: NA
Location:  38.559°N, 91.9214°W
Report Text: KJEF 191253Z 11003KT 4SM BR OVC005 01/M01 A3028 RMK AO2 SLP250 T00061006
Loading
Personal Weather Stations






























Interactive Weather Map New forecast layout! Learn more

10-Day Weather Forecast

Advertisements
Track Severe Weather on mobile